Time;durP1;ratioP1;P1;durP2;ratioP2;P2;SDS_P1;SDS_P2;PMS_P1;PMS_P2;Temp;Humidity;BMP_temperature;BMP_pressure;BME280_temperature;BME280_humidity;BME280_pressure;Samples;Min_cycle;Max_cycle;Signal;HPM_P1;HPM_P2
2022/08/08 00:00:08;;;;;;;1.80;1.55;;;;;;;11.66;64.11;99262.84;4201880;28;20044;-69
2022/08/08 00:02:20;;;;;;;2.65;1.45;;;;;;;11.59;63.95;99257.19;4203086;28;20043;-69
2022/08/08 00:04:34;;;;;;;3.03;1.27;;;;;;;11.53;64.29;99258.63;4200795;28;20044;-69
2022/08/08 00:06:41;;;;;;;2.38;1.40;;;;;;;11.49;64.30;99263.28;4201915;28;20516;-69
2022/08/08 00:08:52;;;;;;;2.42;1.30;;;;;;;11.43;64.19;99253.69;4203248;28;20044;-69
2022/08/08 00:11:04;;;;;;;1.63;1.20;;;;;;;11.38;65.05;99260.31;4203122;28;20154;-69
2022/08/08 00:13:34;;;;;;;2.40;1.40;;;;;;;11.31;64.73;99265.69;4203305;28;20093;-69
2022/08/08 00:15:56;;;;;;;3.38;1.38;;;;;;;11.30;64.13;99258.56;4192189;28;20058;-69
2022/08/08 00:18:02;;;;;;;2.47;1.48;;;;;;;11.28;63.53;99257.31;4203776;28;20040;-69
2022/08/08 00:20:06;;;;;;;1.90;1.20;;;;;;;11.24;63.94;99258.03;4199827;28;20056;-69
2022/08/08 00:22:17;;;;;;;2.03;1.30;;;;;;;11.20;64.01;99256.34;4201478;28;20035;-69
2022/08/08 00:24:25;;;;;;;3.75;1.38;;;;;;;11.08;64.31;99260.06;4203106;28;20210;-69
2022/08/08 00:26:33;;;;;;;2.90;1.38;;;;;;;10.96;64.43;99262.97;4203137;28;20484;-69
2022/08/08 00:28:40;;;;;;;2.08;1.30;;;;;;;10.91;64.55;99260.47;4202675;28;20040;-69
2022/08/08 00:30:50;;;;;;;1.95;1.38;;;;;;;10.84;64.14;99255.59;4202030;28;20047;-69
2022/08/08 00:32:56;;;;;;;2.22;1.40;;;;;;;10.75;64.91;99251.38;4202576;28;20543;-69
2022/08/08 00:35:19;;;;;;;3.38;1.73;;;;;;;10.76;64.71;99258.53;4198616;28;20079;-69
2022/08/08 00:37:29;;;;;;;;;;;;;;;10.66;64.66;99262.66;4203190;28;20040;-69
2022/08/08 00:39:49;;;;;;;3.75;1.50;;;;;;;10.66;63.76;99268.19;4202105;28;19916;-69
2022/08/08 00:42:08;;;;;;;1.27;1.13;;;;;;;10.59;64.21;99270.78;4201535;28;20036;-69
2022/08/08 00:44:46;;;;;;;2.40;1.48;;;;;;;10.56;64.71;99266.78;4200408;28;20052;-69
2022/08/08 00:47:11;;;;;;;3.30;1.30;;;;;;;10.56;64.71;99254.91;4202263;28;20580;-69
2022/08/08 00:49:39;;;;;;;3.13;1.50;;;;;;;10.55;64.70;99267.94;4202104;28;20203;-69
2022/08/08 00:52:11;;;;;;;1.67;1.55;;;;;;;10.58;64.55;99258.91;4202912;28;20040;-69
2022/08/08 00:54:45;;;;;;;1.70;1.52;;;;;;;10.62;65.27;99276.41;4201190;28;20044;-69
2022/08/08 00:57:26;;;;;;;1.80;1.50;;;;;;;10.61;65.96;99274.81;4202758;28;20048;-69
2022/08/08 00:59:52;;;;;;;5.88;1.75;;;;;;;10.56;66.64;99271.50;4202062;28;20108;-69
2022/08/08 01:02:19;;;;;;;4.70;2.67;;;;;;;10.61;66.62;99276.78;4201789;28;20040;-69
2022/08/08 01:04:54;;;;;;;3.05;1.73;;;;;;;10.59;66.62;99277.16;4193726;28;20059;-70
2022/08/08 01:07:27;;;;;;;2.53;2.10;;;;;;;10.57;66.86;99270.34;4185144;28;20376;-69
2022/08/08 01:10:05;;;;;;;2.17;1.90;;;;;;;10.55;66.59;99270.72;4145065;28;20053;-69
2022/08/08 01:12:24;;;;;;;3.97;2.10;;;;;;;10.56;66.31;99268.75;4202190;28;20122;-70
2022/08/08 01:14:54;;;;;;;2.17;1.70;;;;;;;10.57;67.04;99273.91;4201251;28;20067;-70
2022/08/08 01:18:05;;;;;;;4.97;1.88;;;;;;;10.63;67.12;99280.78;4201418;28;20404;-69
2022/08/08 01:20:43;;;;;;;4.75;2.75;;;;;;;10.61;67.73;99274.81;4178347;28;20047;-70
2022/08/08 01:23:21;;;;;;;3.97;2.80;;;;;;;10.57;67.16;99273.91;4202576;28;20058;-69
2022/08/08 01:25:39;;;;;;;3.55;2.72;;;;;;;10.53;67.46;99272.25;4199769;28;20446;-70
2022/08/08 01:27:57;;;;;;;3.58;2.10;;;;;;;10.56;67.41;99277.84;4202216;28;20075;-70
2022/08/08 01:30:19;;;;;;;3.55;2.50;;;;;;;10.51;67.63;99269.84;4200808;28;20476;-69
2022/08/08 01:32:39;;;;;;;3.05;2.38;;;;;;;10.51;67.64;99280.91;4201690;28;20056;-70
2022/08/08 01:35:17;;;;;;;2.70;2.30;;;;;;;10.50;66.13;99284.81;4201255;28;20071;-70
2022/08/08 01:37:26;;;;;;;3.50;2.08;;;;;;;10.52;65.96;99276.97;4202272;28;20044;-69
2022/08/08 01:39:52;;;;;;;2.95;2.30;;;;;;;10.52;65.47;99276.16;4201128;28;20043;-70
2022/08/08 01:42:13;;;;;;;3.20;2.40;;;;;;;10.50;66.49;99279.28;4199953;28;20557;-70
2022/08/08 01:44:29;;;;;;;4.53;3.05;;;;;;;10.48;66.33;99276.06;4199859;28;20044;-70
2022/08/08 01:46:49;;;;;;;3.47;2.50;;;;;;;10.53;66.46;99275.00;4200224;28;20040;-70
2022/08/08 01:49:07;;;;;;;3.45;2.20;;;;;;;10.52;65.73;99276.97;4201751;28;20458;-70
2022/08/08 01:51:26;;;;;;;3.67;2.10;;;;;;;10.50;65.68;99268.19;4201049;28;20040;-70
2022/08/08 01:53:54;;;;;;;3.20;2.22;;;;;;;10.49;65.13;99268.56;4199148;28;20040;-70
2022/08/08 01:56:09;;;;;;;4.80;2.28;;;;;;;10.44;65.43;99277.16;4200866;28;20230;-69
2022/08/08 01:58:26;;;;;;;2.60;2.17;;;;;;;10.33;65.93;99274.09;4200620;28;20048;-70
2022/08/08 02:00:59;;;;;;;6.55;2.28;;;;;;;10.31;65.48;99268.94;4201950;28;20206;-70
2022/08/08 02:03:30;;;;;;;2.25;2.00;;;;;;;10.28;66.12;99268.84;4199942;28;20756;-71
2022/08/08 02:05:52;;;;;;;6.55;2.60;;;;;;;10.28;65.86;99266.09;4200072;28;20028;-69
2022/08/08 02:08:07;;;;;;;3.17;2.10;;;;;;;10.31;64.79;99265.38;4200721;28;20052;-69
2022/08/08 02:10:32;;;;;;;3.38;2.35;;;;;;;10.17;68.20;99267.72;4200493;28;20320;-69
2022/08/08 02:12:48;;;;;;;3.20;1.90;;;;;;;10.02;68.11;99266.59;4201373;28;20036;-70
2022/08/08 02:14:58;;;;;;;8.23;3.65;;;;;;;9.85;68.45;99276.00;4200955;28;20432;-70
2022/08/08 02:17:19;;;;;;;3.55;2.10;;;;;;;9.70;69.34;99266.53;4200884;28;20057;-70
2022/08/08 02:19:25;;;;;;;2.70;2.05;;;;;;;9.62;70.34;99274.97;4200803;28;20054;-69
2022/08/08 02:24:33;;;;;;;2.85;2.03;;;;;;;9.60;68.62;99267.03;4193728;28;20043;-69
2022/08/08 02:27:02;;;;;;;3.83;1.90;;;;;;;9.57;68.96;99271.28;4201436;28;20052;-69
2022/08/08 02:29:18;;;;;;;2.65;2.30;;;;;;;9.51;69.90;99269.91;4200800;28;20051;-70
2022/08/08 02:31:44;;;;;;;2.65;2.08;;;;;;;9.50;68.92;99270.28;4201273;28;20055;-69
2022/08/08 02:33:53;;;;;;;3.70;2.15;;;;;;;9.50;69.60;99278.56;4201243;28;20133;-69
2022/08/08 02:36:15;;;;;;;3.13;2.65;;;;;;;9.49;69.69;99271.44;4200370;28;20056;-69
2022/08/08 02:38:24;;;;;;;3.50;2.08;;;;;;;9.40;70.83;99266.06;4199379;28;20131;-70
2022/08/08 02:40:55;;;;;;;2.72;1.92;;;;;;;9.33;70.65;99274.16;4200926;28;20395;-69
2022/08/08 02:43:23;;;;;;;2.20;1.92;;;;;;;9.25;72.15;99272.31;4204008;28;20060;-70
2022/08/08 02:45:48;;;;;;;3.10;2.35;;;;;;;9.22;70.44;99273.84;4204048;28;20499;-69
2022/08/08 02:48:07;;;;;;;7.65;2.88;;;;;;;9.20;70.57;99275.34;4203610;28;20048;-69
2022/08/08 02:50:32;;;;;;;2.42;2.10;;;;;;;9.15;71.26;99278.34;4202602;28;20048;-70
2022/08/08 02:53:04;;;;;;;2.60;2.38;;;;;;;9.11;71.54;99277.44;4204950;28;20494;-69
2022/08/08 02:55:41;;;;;;;2.42;2.10;;;;;;;9.12;71.05;99273.53;4204380;28;20063;-69
2022/08/08 02:58:28;;;;;;;5.10;2.30;;;;;;;9.11;71.99;99277.44;4204135;28;20051;-69
2022/08/08 03:00:56;;;;;;;2.72;2.33;;;;;;;9.10;71.86;99268.38;4183399;28;20067;-69
2022/08/08 03:03:27;;;;;;;2.35;2.10;;;;;;;9.07;73.38;99277.31;4204144;28;20048;-70
2022/08/08 03:06:10;;;;;;;3.67;2.38;;;;;;;9.09;72.97;99288.00;4202372;28;20058;-69
2022/08/08 03:08:29;;;;;;;3.60;2.25;;;;;;;9.10;72.62;99281.34;4203146;28;20563;-70
2022/08/08 03:10:47;;;;;;;3.15;2.30;;;;;;;9.11;72.28;99283.78;4200870;28;20067;-69
2022/08/08 03:13:15;;;;;;;2.40;2.20;;;;;;;9.12;72.63;99282.63;4200350;28;20424;-69
2022/08/08 03:15:42;;;;;;;2.47;2.28;;;;;;;9.11;73.45;99281.00;4200708;28;20481;-69
2022/08/08 03:18:02;;;;;;;2.90;2.40;;;;;;;9.12;73.78;99279.84;4201274;28;20048;-69
2022/08/08 03:22:05;;;;;;;2.50;2.10;;;;;;;9.11;73.77;99280.22;4201097;28;20369;-69
2022/08/08 03:24:06;;;;;;;3.28;2.40;;;;;;;9.07;72.92;99293.88;4196547;28;20040;-70
2022/08/08 03:26:07;;;;;;;2.92;2.15;;;;;;;9.06;71.71;99295.03;4200913;28;20040;-69
2022/08/08 03:28:13;;;;;;;3.35;2.20;;;;;;;9.02;72.71;99294.16;4204298;28;20020;-70
2022/08/08 03:30:14;;;;;;;3.35;2.17;;;;;;;8.99;73.79;99292.88;4203628;28;20244;-69
2022/08/08 03:34:34;;;;;;;2.40;2.13;;;;;;;8.90;74.76;99289.44;4204373;28;20051;-69
2022/08/08 03:36:42;;;;;;;2.67;2.40;;;;;;;8.91;72.83;99288.28;4202981;28;20044;-69
2022/08/08 03:38:50;;;;;;;4.55;2.47;;;;;;;8.85;73.47;99289.66;4203219;28;20089;-69
2022/08/08 03:40:52;;;;;;;5.25;2.63;;;;;;;8.82;72.97;99289.56;4202963;28;20082;-69
2022/08/08 03:42:53;;;;;;;5.18;2.42;;;;;;;8.78;73.45;99288.66;4203790;28;20072;-70
2022/08/08 03:44:53;;;;;;;3.63;2.03;;;;;;;8.76;73.80;99288.97;4201831;28;20090;-69
2022/08/08 03:46:54;;;;;;;2.83;2.38;;;;;;;8.76;74.07;99286.22;4203169;28;20540;-69
2022/08/08 03:48:59;;;;;;;3.40;2.53;;;;;;;8.78;74.92;99292.22;4189802;28;20116;-69
2022/08/08 03:51:00;;;;;;;3.00;2.40;;;;;;;8.83;74.01;99300.25;4202255;28;20040;-69
2022/08/08 03:53:12;;;;;;;4.13;2.40;;;;;;;8.87;72.78;99290.13;4202259;28;20058;-69
2022/08/08 03:55:15;;;;;;;2.90;2.17;;;;;;;8.90;72.06;99302.44;4202062;28;20059;-69
2022/08/08 03:57:16;;;;;;;3.08;2.33;;;;;;;8.96;71.23;99296.34;4201499;28;20059;-69
2022/08/08 03:59:16;;;;;;;4.35;2.30;;;;;;;9.06;71.08;99306.09;4201317;28;20044;-69
2022/08/08 04:01:17;;;;;;;3.25;2.25;;;;;;;9.04;71.23;99310.34;4203538;28;20083;-69
2022/08/08 04:03:18;;;;;;;4.78;2.35;;;;;;;8.94;72.59;99308.88;4203459;28;20040;-69
2022/08/08 04:05:19;;;;;;;4.57;2.40;;;;;;;8.82;72.02;99306.91;4202660;28;20090;-69
2022/08/08 04:07:20;;;;;;;5.07;2.50;;;;;;;8.70;73.28;99316.00;4201292;28;20057;-69
2022/08/08 04:09:20;;;;;;;4.32;2.60;;;;;;;8.60;73.98;99319.22;4200101;28;20248;-69
2022/08/08 04:11:21;;;;;;;13.02;4.80;;;;;;;8.48;74.45;99315.66;4201930;28;20047;-69
2022/08/08 04:13:21;;;;;;;4.88;2.60;;;;;;;8.41;74.92;99318.97;4202718;28;20039;-69
2022/08/08 04:15:22;;;;;;;3.75;2.20;;;;;;;8.36;74.84;99316.47;4203554;28;20048;-69
2022/08/08 04:17:22;;;;;;;2.53;1.98;;;;;;;8.35;74.86;99317.59;4201549;28;20460;-69
2022/08/08 04:19:22;;;;;;;3.70;2.53;;;;;;;8.35;73.52;99323.91;4201340;28;20055;-69
2022/08/08 04:21:23;;;;;;;2.75;2.20;;;;;;;8.39;73.21;99327.59;4202572;28;20319;-69
2022/08/08 04:23:23;;;;;;;4.35;3.20;;;;;;;8.37;73.11;99321.63;4203541;28;20048;-69
2022/08/08 04:25:23;;;;;;;3.45;2.60;;;;;;;8.48;72.62;99332.22;4203063;28;20074;-69
2022/08/08 04:27:26;;;;;;;3.70;2.53;;;;;;;8.54;72.38;99328.88;4202586;28;20463;-69
2022/08/08 04:29:27;;;;;;;;;;;;;;;8.54;73.04;99334.41;4201340;28;20071;-69
2022/08/08 04:31:27;;;;;;;7.35;2.40;;;;;;;8.51;73.40;99340.59;4202524;28;19916;-69
2022/08/08 04:33:28;;;;;;;2.92;2.53;;;;;;;8.49;73.68;99337.38;4202214;28;20044;-69
2022/08/08 04:35:28;;;;;;;2.63;2.28;;;;;;;8.53;72.36;99332.78;4203393;28;20044;-69
2022/08/08 04:37:28;;;;;;;4.03;2.50;;;;;;;8.55;73.01;99327.72;4201891;28;20472;-69
2022/08/08 04:39:29;;;;;;;3.80;2.42;;;;;;;8.57;73.48;99333.69;4202198;28;20517;-69
2022/08/08 04:41:29;;;;;;;3.05;2.55;;;;;;;8.60;73.20;99329.44;4203154;28;20523;-69
2022/08/08 04:43:30;;;;;;;2.65;2.13;;;;;;;8.62;73.20;99329.94;4202324;28;20051;-69
2022/08/08 04:45:31;;;;;;;3.38;2.42;;;;;;;8.70;72.78;99337.28;4200073;28;20361;-69
2022/08/08 04:47:32;;;;;;;3.10;2.13;;;;;;;8.73;73.35;99337.38;4201894;28;20043;-69
2022/08/08 04:49:33;;;;;;;3.17;2.40;;;;;;;8.79;72.88;99334.41;4202615;28;20327;-69
2022/08/08 04:51:33;;;;;;;3.00;2.53;;;;;;;8.91;71.80;99337.94;4201719;28;20165;-69
2022/08/08 04:53:33;;;;;;;5.22;2.30;;;;;;;9.02;71.59;99338.31;4202793;28;20040;-69
2022/08/08 04:55:34;;;;;;;2.80;2.40;;;;;;;9.14;71.30;99326.44;4115929;27;20048;-69
2022/08/08 04:57:34;;;;;;;3.05;2.47;;;;;;;9.28;69.65;99337.91;4204560;28;20127;-69
2022/08/08 04:59:35;;;;;;;3.85;2.33;;;;;;;9.42;70.18;99340.28;4199583;28;20105;-69
2022/08/08 05:01:35;;;;;;;6.15;2.67;;;;;;;9.48;71.09;99342.47;4202320;28;20051;-69
2022/08/08 05:03:36;;;;;;;3.45;2.90;;;;;;;9.52;71.38;99337.84;4202420;28;20376;-69
2022/08/08 05:05:36;;;;;;;7.32;2.50;;;;;;;9.55;71.04;99347.41;4202473;28;20535;-69
2022/08/08 05:07:37;;;;;;;3.92;2.60;;;;;;;9.59;70.90;99340.00;4202228;28;20047;-70
2022/08/08 05:09:37;;;;;;;3.60;2.65;;;;;;;9.65;71.01;99346.91;4202267;28;20041;-69
2022/08/08 05:11:38;;;;;;;4.97;2.60;;;;;;;9.72;71.27;99338.00;4203230;28;20077;-69
2022/08/08 05:13:42;;;;;;;4.07;2.75;;;;;;;9.80;70.07;99339.81;4202725;28;20383;-69
2022/08/08 05:15:42;;;;;;;5.40;3.03;;;;;;;9.90;70.58;99344.03;4203065;28;20047;-69
2022/08/08 05:17:42;;;;;;;4.40;2.33;;;;;;;9.95;70.45;99341.84;4200261;28;20032;-69
2022/08/08 05:19:42;;;;;;;4.88;2.65;;;;;;;10.03;71.37;99343.63;4201852;28;20762;-69
2022/08/08 05:21:43;;;;;;;7.30;2.97;;;;;;;10.10;71.40;99351.31;4201000;28;20491;-69
2022/08/08 05:23:43;;;;;;;8.02;2.58;;;;;;;10.17;71.99;99345.16;4199449;28;20127;-69
2022/08/08 05:25:44;;;;;;;7.22;3.10;;;;;;;10.28;71.87;99360.13;4201124;28;20722;-69
2022/08/08 05:27:44;;;;;;;4.72;2.65;;;;;;;10.36;70.77;99343.38;4200692;28;20121;-69
2022/08/08 05:29:45;;;;;;;3.90;2.55;;;;;;;10.46;70.00;99346.75;4201509;28;20043;-69
2022/08/08 05:31:45;;;;;;;5.63;2.70;;;;;;;10.56;70.76;99349.00;4201209;28;20371;-69
2022/08/08 05:33:45;;;;;;;6.53;2.90;;;;;;;10.65;70.28;99350.41;4201458;28;20048;-69
2022/08/08 05:35:46;;;;;;;6.93;3.35;;;;;;;10.75;70.94;99353.78;4201787;28;20036;-69
2022/08/08 05:37:52;;;;;;;5.32;2.90;;;;;;;10.85;71.06;99356.84;4201886;28;20048;-69
2022/08/08 05:39:54;;;;;;;3.65;2.50;;;;;;;10.91;70.88;99355.41;4199682;28;20051;-69
2022/08/08 05:41:57;;;;;;;3.63;2.88;;;;;;;11.02;70.24;99361.22;4201544;28;20044;-69
2022/08/08 05:44:04;;;;;;;5.90;2.75;;;;;;;11.11;69.23;99361.00;4201335;28;20055;-69
2022/08/08 05:46:06;;;;;;;6.75;3.00;;;;;;;11.18;68.43;99353.69;4201175;28;20093;-70
2022/08/08 05:48:07;;;;;;;4.47;2.53;;;;;;;11.30;67.22;99365.78;4201812;28;20032;-69
2022/08/08 05:50:08;;;;;;;3.03;2.67;;;;;;;11.38;67.14;99357.28;4201313;28;20555;-69
2022/08/08 05:52:09;;;;;;;4.22;2.78;;;;;;;11.49;66.67;99365.81;4202164;28;20040;-70
2022/08/08 05:54:10;;;;;;;8.43;3.33;;;;;;;11.57;67.28;99364.81;4200097;28;20107;-69
2022/08/08 05:56:12;;;;;;;7.10;3.38;;;;;;;11.66;67.68;99362.63;4201421;28;20439;-69
2022/08/08 05:58:13;;;;;;;9.35;2.63;;;;;;;11.76;66.51;99364.03;4202377;28;20140;-70
2022/08/08 06:00:14;;;;;;;5.25;2.72;;;;;;;11.87;67.06;99361.50;4201180;28;20032;-70
2022/08/08 06:04:42;;;;;;;3.83;2.70;;;;;;;12.03;65.67;99370.53;4201738;28;20039;-69
2022/08/08 06:06:42;;;;;;;3.50;2.35;;;;;;;12.09;66.04;99372.66;4200287;28;20048;-69
2022/08/08 06:08:50;;;;;;;2.92;2.20;;;;;;;12.19;65.00;99374.03;4201043;28;20086;-69
2022/08/08 06:10:53;;;;;;;4.45;2.40;;;;;;;12.26;64.00;99374.19;4201159;28;20066;-69
2022/08/08 06:12:54;;;;;;;4.05;2.17;;;;;;;12.34;64.38;99378.69;4200904;28;20109;-69
2022/08/08 06:14:57;;;;;;;12.35;3.28;;;;;;;12.46;65.07;99376.91;4201318;28;20103;-69
2022/08/08 06:17:00;;;;;;;6.55;2.35;;;;;;;12.54;64.34;99378.63;4202108;28;20068;-69
2022/08/08 06:19:02;;;;;;;5.50;2.40;;;;;;;12.62;64.77;99377.59;4204274;28;20457;-69
2022/08/08 06:21:03;;;;;;;4.53;2.38;;;;;;;12.71;63.91;99383.69;4203941;28;20051;-69
2022/08/08 06:23:03;;;;;;;5.10;2.63;;;;;;;12.79;63.62;99381.84;4204557;28;20118;-70
2022/08/08 06:25:04;;;;;;;4.30;2.60;;;;;;;12.86;63.09;99388.34;4205196;28;20047;-70
2022/08/08 06:27:09;;;;;;;4.25;2.00;;;;;;;12.93;62.85;99380.13;4204338;28;20048;-70
2022/08/08 06:29:16;;;;;;;6.68;2.22;;;;;;;13.03;62.35;99394.56;4204016;28;20207;-70
2022/08/08 06:31:20;;;;;;;6.80;2.28;;;;;;;13.11;61.69;99387.94;4196016;28;20139;-70
2022/08/08 06:33:29;;;;;;;6.15;3.03;;;;;;;13.19;62.00;99386.88;4204483;28;20047;-70
2022/08/08 06:35:31;;;;;;;5.00;2.83;;;;;;;13.34;61.38;99394.28;4203860;28;20047;-70
2022/08/08 06:37:35;;;;;;;4.30;1.92;;;;;;;13.43;60.78;99392.03;4203954;28;20127;-70
2022/08/08 06:39:36;;;;;;;3.85;2.25;;;;;;;13.53;60.08;99389.78;4204041;28;20076;-69
2022/08/08 06:41:45;;;;;;;4.20;2.17;;;;;;;13.61;59.58;99397.84;4205247;28;20787;-70
2022/08/08 06:43:48;;;;;;;5.63;2.08;;;;;;;13.71;59.57;99382.47;4203786;28;20716;-70
2022/08/08 06:45:48;;;;;;;5.47;2.75;;;;;;;13.82;59.39;99389.00;4201574;28;20400;-69
2022/08/08 06:47:50;;;;;;;3.50;2.05;;;;;;;13.90;58.99;99387.91;4203469;28;20048;-70
2022/08/08 06:49:50;;;;;;;6.75;2.25;;;;;;;13.98;58.10;99384.03;4204221;28;20040;-70
2022/08/08 06:51:51;;;;;;;10.70;2.95;;;;;;;14.04;58.11;99387.25;4203714;28;20663;-70
2022/08/08 06:53:54;;;;;;;7.50;2.10;;;;;;;14.14;57.72;99383.00;4205062;28;20039;-70
2022/08/08 06:55:54;;;;;;;6.80;2.08;;;;;;;14.23;57.75;99391.84;4203214;28;20133;-69
2022/08/08 06:57:55;;;;;;;2.83;1.70;;;;;;;14.31;57.24;99387.97;4204523;28;20044;-70
2022/08/08 06:59:56;;;;;;;3.42;2.15;;;;;;;14.41;56.89;99386.50;4204192;28;20778;-70
2022/08/08 07:02:01;;;;;;;4.43;1.85;;;;;;;14.51;56.96;99385.84;4203562;28;20412;-70
2022/08/08 07:04:08;;;;;;;4.70;2.22;;;;;;;14.66;56.30;99381.22;4203321;28;20040;-70
2022/08/08 07:06:09;;;;;;;6.75;2.15;;;;;;;14.82;56.19;99393.72;4204728;28;20263;-70
2022/08/08 07:08:16;;;;;;;4.03;1.88;;;;;;;14.96;55.07;99393.00;4204344;28;20451;-70
2022/08/08 07:10:20;;;;;;;1.70;1.52;;;;;;;15.11;54.48;99393.94;4203548;28;20434;-70
2022/08/08 07:12:36;;;;;;;3.30;1.75;;;;;;;15.21;52.83;99393.22;4203177;28;20508;-70
2022/08/08 07:15:02;;;;;;;4.88;1.60;;;;;;;15.30;52.79;99393.66;4203714;28;20531;-70
2022/08/08 07:17:05;;;;;;;3.22;1.77;;;;;;;15.35;52.71;99400.88;4203853;28;20051;-70
2022/08/08 07:19:10;;;;;;;2.85;1.48;;;;;;;15.41;52.61;99399.34;4202817;28;20052;-70
2022/08/08 07:21:15;;;;;;;3.92;1.48;;;;;;;15.43;52.60;99388.59;4197067;28;20054;-69
2022/08/08 07:23:30;;;;;;;2.35;1.63;;;;;;;15.52;52.56;99389.03;4203125;28;20062;-70
2022/08/08 07:25:36;;;;;;;6.53;1.95;;;;;;;15.58;52.37;99383.91;4203826;28;20131;-70
2022/08/08 07:27:41;;;;;;;5.53;1.73;;;;;;;15.68;52.23;99394.34;4204058;28;20040;-70
2022/08/08 07:29:43;;;;;;;1.95;1.40;;;;;;;15.72;52.00;99390.41;4202885;28;20048;-70
2022/08/08 07:31:44;;;;;;;2.72;1.50;;;;;;;15.83;52.37;99390.44;4203425;28;20048;-70
2022/08/08 07:33:45;;;;;;;3.65;1.42;;;;;;;15.95;51.78;99400.47;4202755;28;20284;-70
2022/08/08 07:35:46;;;;;;;3.28;2.08;;;;;;;16.09;51.04;99391.34;4203067;28;20036;-69
2022/08/08 07:37:49;;;;;;;3.78;1.60;;;;;;;16.20;50.67;99389.38;4204270;28;20059;-70
2022/08/08 07:39:49;;;;;;;1.83;1.35;;;;;;;16.31;51.05;99390.25;4202466;28;20044;-70
2022/08/08 07:41:50;;;;;;;3.22;1.75;;;;;;;16.44;49.77;99385.06;4203246;28;20055;-70
2022/08/08 07:43:53;;;;;;;2.75;1.60;;;;;;;16.56;50.13;99399.47;4201940;28;20498;-70
2022/08/08 07:45:53;;;;;;;2.03;1.60;;;;;;;16.66;49.66;99397.09;4203612;28;20119;-69
2022/08/08 07:47:57;;;;;;;2.83;1.65;;;;;;;16.80;49.51;99400.75;4203846;28;20040;-70
2022/08/08 07:49:57;;;;;;;3.78;2.03;;;;;;;16.86;49.22;99401.13;4201262;28;20542;-70
2022/08/08 07:51:59;;;;;;;2.25;1.60;;;;;;;17.00;48.04;99409.53;4203550;28;20044;-70
2022/08/08 07:54:33;;;;;;;3.07;1.80;;;;;;;17.09;48.35;99403.56;4203393;28;20036;-70
2022/08/08 07:56:48;;;;;;;3.10;1.40;;;;;;;17.19;47.98;99402.75;4198798;28;20036;-70
2022/08/08 07:58:50;;;;;;;2.03;1.60;;;;;;;17.31;47.33;99407.94;4202935;28;20511;-70
2022/08/08 08:00:58;;;;;;;2.85;1.63;;;;;;;17.49;46.05;99402.31;4202271;28;20040;-70
2022/08/08 08:03:05;;;;;;;2.10;1.27;;;;;;;17.52;46.43;99403.50;4203102;28;20376;-70
2022/08/08 08:05:19;;;;;;;3.95;1.45;;;;;;;17.61;46.21;99410.28;4200843;28;20040;-70
2022/08/08 08:07:21;;;;;;;3.65;1.52;;;;;;;17.69;46.48;99400.66;4202493;28;20149;-69
2022/08/08 08:09:27;;;;;;;3.22;1.65;;;;;;;17.75;46.16;99406.69;4201879;28;20083;-69
2022/08/08 08:11:32;;;;;;;2.53;1.60;;;;;;;17.93;45.35;99396.22;4203765;28;20039;-69
2022/08/08 08:13:46;;;;;;;2.65;1.42;;;;;;;18.07;44.82;99405.78;4201582;28;20063;-70
2022/08/08 08:15:58;;;;;;;1.63;1.27;;;;;;;18.17;44.87;99396.53;4200136;28;20047;-70
2022/08/08 08:18:02;;;;;;;4.03;1.52;;;;;;;18.23;44.62;99404.13;4198894;28;20279;-70
2022/08/08 08:20:04;;;;;;;2.30;1.45;;;;;;;18.35;44.36;99405.66;4201328;28;20044;-70
2022/08/08 08:22:04;;;;;;;4.82;1.83;;;;;;;18.40;44.07;99402.44;4202836;28;20032;-70
2022/08/08 08:24:05;;;;;;;3.95;1.33;;;;;;;18.61;43.55;99389.50;4202078;28;20055;-70
2022/08/08 08:26:05;;;;;;;3.20;1.70;;;;;;;18.77;43.20;99395.41;4196383;28;20123;-70
2022/08/08 08:28:06;;;;;;;2.25;1.40;;;;;;;18.88;42.85;99398.16;4198350;28;20357;-71
2022/08/08 08:30:07;;;;;;;6.88;1.80;;;;;;;18.91;42.89;99403.75;4198422;28;20032;-70
2022/08/08 08:32:07;;;;;;;3.58;1.52;;;;;;;18.96;42.17;99383.69;4200032;28;20503;-70
2022/08/08 08:34:08;;;;;;;3.97;1.50;;;;;;;19.05;42.39;99398.03;4198865;28;20106;-71
2022/08/08 08:36:09;;;;;;;1.98;1.42;;;;;;;19.16;42.59;99395.13;4199113;28;20043;-71
2022/08/08 08:38:10;;;;;;;4.65;1.55;;;;;;;19.34;41.25;99398.56;4202396;28;20036;-71
2022/08/08 08:40:12;;;;;;;2.38;1.67;;;;;;;19.52;41.83;99394.78;4200629;28;20032;-70
2022/08/08 08:42:14;;;;;;;2.55;1.30;;;;;;;19.67;41.55;99396.28;4202400;28;20115;-70
2022/08/08 08:44:15;;;;;;;3.47;1.50;;;;;;;19.77;41.67;99391.75;4202168;28;20043;-70
2022/08/08 08:46:15;;;;;;;5.35;1.67;;;;;;;19.87;41.41;99393.66;4202447;28;20043;-70
2022/08/08 08:48:18;;;;;;;4.35;1.58;;;;;;;19.96;40.46;99395.97;4202968;28;20036;-70
2022/08/08 08:50:20;;;;;;;3.13;1.60;;;;;;;20.03;40.87;99402.31;4201226;28;20032;-71
2022/08/08 08:52:21;;;;;;;1.65;1.50;;;;;;;20.10;41.34;99395.78;4196830;28;20016;-70
2022/08/08 08:54:24;;;;;;;1.70;1.60;;;;;;;20.18;40.19;99400.09;4201532;28;20154;-71
2022/08/08 08:56:25;;;;;;;3.95;1.90;;;;;;;20.29;39.99;99400.78;4200948;28;20048;-71
2022/08/08 08:58:43;;;;;;;3.88;2.13;;;;;;;20.42;39.36;99396.16;4200466;28;20058;-71
2022/08/08 09:00:43;;;;;;;3.17;1.70;;;;;;;20.55;40.14;99402.03;4202598;28;20090;-71
2022/08/08 09:02:46;;;;;;;3.28;2.10;;;;;;;20.60;38.74;99397.94;4201593;28;20051;-71
2022/08/08 09:04:58;;;;;;;2.85;1.77;;;;;;;20.44;39.62;99396.59;4203558;28;20078;-71
2022/08/08 09:07:01;;;;;;;3.00;1.70;;;;;;;20.47;40.36;99398.53;4202640;28;20430;-71
2022/08/08 09:09:08;;;;;;;4.40;2.00;;;;;;;20.56;39.61;99392.38;4201914;28;20500;-71
2022/08/08 09:11:09;;;;;;;5.50;1.92;;;;;;;20.71;39.39;99392.97;4202854;28;20298;-71
2022/08/08 09:13:12;;;;;;;4.25;1.85;;;;;;;20.70;39.73;99397.03;4202248;28;20040;-71
2022/08/08 09:15:13;;;;;;;4.85;1.50;;;;;;;20.80;38.79;99401.69;4202317;28;20048;-70
2022/08/08 09:17:13;;;;;;;1.98;1.73;;;;;;;21.00;37.58;99396.13;4202415;28;20718;-71
2022/08/08 09:19:15;;;;;;;3.42;1.92;;;;;;;21.17;37.26;99400.69;4200799;28;20048;-71
2022/08/08 09:21:16;;;;;;;2.83;1.63;;;;;;;21.19;36.42;99389.00;4202387;28;20125;-71
2022/08/08 09:23:17;;;;;;;3.50;1.48;;;;;;;21.19;36.63;99397.47;4202636;28;20032;-71
2022/08/08 09:25:19;;;;;;;3.13;1.63;;;;;;;21.23;37.21;99396.16;4201767;28;20044;-71
2022/08/08 09:27:20;;;;;;;2.92;1.60;;;;;;;21.24;37.78;99396.94;4202745;28;20438;-71
2022/08/08 09:29:22;;;;;;;3.88;1.60;;;;;;;21.22;37.11;99388.16;4202069;28;20710;-71
2022/08/08 09:31:37;;;;;;;3.33;1.63;;;;;;;21.21;37.79;99390.16;4203227;28;20067;-71
2022/08/08 09:33:43;;;;;;;4.20;1.73;;;;;;;21.33;36.17;99388.78;4201733;28;20110;-71
2022/08/08 09:35:45;;;;;;;3.05;1.50;;;;;;;21.38;36.25;99390.31;4202390;28;20498;-71
2022/08/08 09:37:48;;;;;;;2.00;1.60;;;;;;;21.46;36.19;99384.13;4202865;28;20040;-71
2022/08/08 09:40:05;;;;;;;1.95;1.45;;;;;;;21.57;36.13;99387.53;4200225;28;20315;-71
2022/08/08 09:42:12;;;;;;;3.25;1.30;;;;;;;21.75;34.75;99381.56;4199355;28;20036;-71
2022/08/08 09:44:27;;;;;;;2.13;1.23;;;;;;;21.85;34.95;99383.41;4202516;28;20063;-71
2022/08/08 09:46:28;;;;;;;2.53;1.40;;;;;;;21.95;34.78;99383.63;4202241;28;20039;-71
2022/08/08 09:48:31;;;;;;;3.08;1.55;;;;;;;22.10;33.58;99385.75;4201779;28;20086;-71
2022/08/08 09:50:33;;;;;;;3.38;1.40;;;;;;;22.15;33.45;99378.78;4202123;28;20032;-71
2022/08/08 09:52:35;;;;;;;3.20;1.80;;;;;;;22.15;34.86;99379.56;4201387;28;20048;-71
2022/08/08 09:54:43;;;;;;;1.92;1.50;;;;;;;22.12;34.80;99374.81;4201758;28;20048;-71
2022/08/08 09:56:48;;;;;;;2.78;1.40;;;;;;;22.13;35.16;99384.06;4202090;28;20043;-71
2022/08/08 09:59:03;;;;;;;1.50;1.30;;;;;;;22.13;33.65;99382.03;4201795;28;20373;-71
2022/08/08 10:01:07;;;;;;;2.22;1.40;;;;;;;22.12;33.60;99374.81;4202389;28;20079;-71
2022/08/08 10:03:13;;;;;;;4.50;1.52;;;;;;;22.18;33.54;99372.28;4201748;28;20230;-70
2022/08/08 10:05:19;;;;;;;1.50;1.30;;;;;;;22.40;33.53;99378.25;4202952;28;20052;-71
2022/08/08 10:07:19;;;;;;;1.60;1.20;;;;;;;22.53;33.67;99381.19;4201711;28;20166;-71
2022/08/08 10:09:28;;;;;;;1.67;1.30;;;;;;;22.60;34.10;99379.00;4201381;28;20048;-71
2022/08/08 10:11:29;;;;;;;2.42;1.35;;;;;;;22.64;33.57;99376.88;4202202;28;20412;-71
2022/08/08 10:13:31;;;;;;;4.07;1.40;;;;;;;22.73;32.69;99369.84;4200788;28;20043;-71
2022/08/08 10:15:36;;;;;;;3.03;1.30;;;;;;;22.83;33.03;99365.97;4201672;28;20060;-71
2022/08/08 10:17:47;;;;;;;4.57;1.42;;;;;;;22.93;32.29;99367.78;4202653;28;20511;-71